createdAt,value
2023-01-11T00:00:33.340Z,26.90
2023-01-11T00:03:01.493Z,26.80
2023-01-11T00:05:30.284Z,26.50
2023-01-11T00:08:00.499Z,25.70
2023-01-11T00:10:32.785Z,26.60
2023-01-11T00:13:06.236Z,27.57
2023-01-11T00:15:36.804Z,26.97
2023-01-11T00:18:04.569Z,26.07
2023-01-11T00:20:32.008Z,27.80
2023-01-11T00:23:01.789Z,30.53
2023-01-11T00:25:29.122Z,28.83
2023-01-11T00:27:57.483Z,30.40
2023-01-11T00:30:25.236Z,31.40
2023-01-11T00:32:56.940Z,29.47
2023-01-11T00:35:25.477Z,29.47
2023-01-11T00:37:53.740Z,30.37
2023-01-11T00:40:24.320Z,30.97
2023-01-11T00:43:12.984Z,31.90
2023-01-11T00:46:01.839Z,32.47
2023-01-11T00:48:29.765Z,32.20
2023-01-11T00:50:58.059Z,33.40
2023-01-11T00:53:25.448Z,33.73
2023-01-11T00:55:52.957Z,31.50
2023-01-11T00:58:20.371Z,34.00
2023-01-11T01:00:47.714Z,34.50
2023-01-11T01:03:15.092Z,32.73
2023-01-11T01:05:42.366Z,33.17
2023-01-11T01:08:12.095Z,33.23
2023-01-11T01:10:39.454Z,34.00
2023-01-11T01:13:25.296Z,33.93
2023-01-11T01:15:57.434Z,30.43
2023-01-11T01:18:25.125Z,34.77
2023-01-11T01:20:52.854Z,36.37
2023-01-11T01:23:21.658Z,35.80
2023-01-11T01:25:48.970Z,37.07
2023-01-11T01:28:16.842Z,38.07
2023-01-11T01:30:44.150Z,38.87
2023-01-11T01:33:11.451Z,36.37
2023-01-11T01:35:38.999Z,39.80
2023-01-11T01:38:06.847Z,38.83
2023-01-11T01:40:34.732Z,39.30
2023-01-11T01:43:02.036Z,39.70
2023-01-11T01:45:29.409Z,39.63
2023-01-11T01:47:59.010Z,36.53
2023-01-11T01:50:28.127Z,35.43
2023-01-11T01:52:58.777Z,35.10
2023-01-11T01:55:28.764Z,36.80
2023-01-11T01:57:57.230Z,36.13
2023-01-11T02:00:25.561Z,35.30
2023-01-11T02:02:53.328Z,37.87
2023-01-11T02:05:20.963Z,36.60
2023-01-11T02:07:48.611Z,34.77
2023-01-11T02:10:20.945Z,36.87
2023-01-11T02:13:05.516Z,34.73
2023-01-11T02:15:33.124Z,35.80
2023-01-11T02:18:00.460Z,35.63
2023-01-11T02:20:46.557Z,36.03
2023-01-11T02:23:16.807Z,35.30
2023-01-11T02:26:03.301Z,34.50
2023-01-11T02:28:34.764Z,34.40
2023-01-11T02:31:08.692Z,36.47
2023-01-11T02:33:54.869Z,35.87
2023-01-11T02:36:28.042Z,35.43
2023-01-11T02:39:14.208Z,34.97
2023-01-11T02:42:05.935Z,34.80
2023-01-11T02:44:57.608Z,37.40
2023-01-11T02:47:29.396Z,34.63
2023-01-11T02:50:23.338Z,35.03
2023-01-11T02:53:03.271Z,37.20
2023-01-11T02:55:35.567Z,40.93
2023-01-11T02:58:04.004Z,35.00
2023-01-11T03:00:31.902Z,34.33
2023-01-11T03:03:10.229Z,36.50
2023-01-11T03:05:40.906Z,31.67
2023-01-11T03:08:30.792Z,33.63
2023-01-11T03:10:58.783Z,33.43
2023-01-11T03:13:37.006Z,34.27
2023-01-11T03:16:13.245Z,37.50
2023-01-11T03:18:43.679Z,38.57
2023-01-11T03:21:25.974Z,39.47
2023-01-11T03:24:11.899Z,37.87
2023-01-11T03:26:54.185Z,38.53
2023-01-11T03:29:30.531Z,36.03
2023-01-11T03:32:16.496Z,34.77
2023-01-11T03:35:07.221Z,36.10
2023-01-11T03:37:46.892Z,34.10
2023-01-11T03:40:16.818Z,35.57
2023-01-11T03:43:04.823Z,35.83
2023-01-11T03:45:33.494Z,35.83
2023-01-11T03:48:02.125Z,36.17
2023-01-11T03:50:30.470Z,37.43
2023-01-11T03:52:59.902Z,37.10
2023-01-11T03:55:29.753Z,35.27
2023-01-11T03:57:58.513Z,33.20
2023-01-11T04:00:26.895Z,34.90
2023-01-11T04:02:54.247Z,34.77
2023-01-11T04:05:21.628Z,35.77
2023-01-11T04:07:48.945Z,35.67
2023-01-11T04:10:16.405Z,35.80
2023-01-11T04:12:46.473Z,35.70
2023-01-11T04:15:14.915Z,35.70
2023-01-11T04:17:42.696Z,34.23
2023-01-11T04:20:10.832Z,35.43
2023-01-11T04:22:38.158Z,35.00
2023-01-11T04:25:05.974Z,36.97
2023-01-11T04:27:33.382Z,37.57
2023-01-11T04:30:01.751Z,36.67
2023-01-11T04:32:29.051Z,36.60
2023-01-11T04:34:56.410Z,37.37
2023-01-11T04:37:23.860Z,35.83
2023-01-11T04:39:51.144Z,37.90
2023-01-11T04:42:18.515Z,36.00
2023-01-11T04:44:47.951Z,37.27
2023-01-11T04:47:16.443Z,35.23
2023-01-11T04:49:43.813Z,35.63
2023-01-11T04:52:11.964Z,35.87
2023-01-11T04:54:39.574Z,35.17
2023-01-11T04:57:07.325Z,35.23
2023-01-11T04:59:34.715Z,33.23
2023-01-11T05:02:02.137Z,34.03
2023-01-11T05:04:29.485Z,33.83
2023-01-11T05:06:56.894Z,32.70
2023-01-11T05:09:25.498Z,32.63
2023-01-11T05:11:52.899Z,32.13
2023-01-11T05:14:20.224Z,32.13
2023-01-11T05:16:47.862Z,30.17
2023-01-11T05:19:15.733Z,28.57
2023-01-11T05:21:43.535Z,27.00
2023-01-11T05:24:14.752Z,27.00
2023-01-11T05:26:43.320Z,25.20
2023-01-11T05:29:12.356Z,23.47
2023-01-11T05:31:42.077Z,23.07
2023-01-11T05:34:11.739Z,21.03
2023-01-11T05:36:39.253Z,21.37
2023-01-11T05:39:06.859Z,22.10
2023-01-11T05:41:34.299Z,21.33
2023-01-11T05:44:26.785Z,21.53
2023-01-11T05:46:56.618Z,22.00
2023-01-11T05:49:24.147Z,20.50
2023-01-11T05:51:52.046Z,20.70
2023-01-11T05:54:19.476Z,19.70
2023-01-11T05:56:46.988Z,18.83
2023-01-11T05:59:14.411Z,18.97
2023-01-11T06:01:41.951Z,18.10
2023-01-11T06:04:09.438Z,16.63
2023-01-11T06:06:37.279Z,25.43
2023-01-11T06:09:04.640Z,18.87
2023-01-11T06:11:32.919Z,18.43
2023-01-11T06:14:00.654Z,17.03
2023-01-11T06:16:28.017Z,17.67
2023-01-11T06:18:59.467Z,17.23
2023-01-11T06:21:27.281Z,16.87
2023-01-11T06:23:55.397Z,18.00
2023-01-11T06:26:23.366Z,18.88
2023-01-11T06:28:51.105Z,17.77
2023-01-11T06:31:18.945Z,16.50
2023-01-11T06:33:47.046Z,16.43
2023-01-11T06:36:15.094Z,17.27
2023-01-11T06:38:42.894Z,17.23
2023-01-11T06:41:11.212Z,16.90
2023-01-11T06:43:41.617Z,17.83
2023-01-11T06:46:13.972Z,17.23
2023-01-11T06:48:41.693Z,17.03
2023-01-11T06:51:11.956Z,17.70
2023-01-11T06:53:39.680Z,16.87
2023-01-11T06:56:07.244Z,17.03
2023-01-11T06:58:34.594Z,17.63
2023-01-11T07:01:02.106Z,16.57
2023-01-11T07:03:30.139Z,19.00
2023-01-11T07:06:00.116Z,17.00
2023-01-11T07:08:29.621Z,17.17
2023-01-11T07:10:57.256Z,16.60
2023-01-11T07:13:24.625Z,16.20
2023-01-11T07:15:54.230Z,16.97
2023-01-11T07:18:21.871Z,15.50
2023-01-11T07:20:49.263Z,16.53
2023-01-11T07:23:16.607Z,16.50
2023-01-11T07:25:44.863Z,16.90
2023-01-11T07:28:12.346Z,16.87
2023-01-11T07:30:56.866Z,16.67
2023-01-11T07:33:25.880Z,15.23
2023-01-11T07:35:54.864Z,15.73
2023-01-11T07:38:22.294Z,15.80
2023-01-11T07:40:49.677Z,16.43
2023-01-11T07:43:19.361Z,15.40
2023-01-11T07:45:51.098Z,16.37
2023-01-11T07:48:25.235Z,14.83
2023-01-11T07:50:53.208Z,15.40
2023-01-11T07:53:22.091Z,15.87
2023-01-11T07:55:49.461Z,16.33
2023-01-11T07:58:17.184Z,15.03
2023-01-11T08:00:46.371Z,14.73
2023-01-11T08:03:14.205Z,15.07
2023-01-11T08:05:41.735Z,15.53
2023-01-11T08:08:09.391Z,16.27
2023-01-11T08:10:41.946Z,14.77
2023-01-11T08:13:31.489Z,14.67
2023-01-11T08:16:01.937Z,14.70
2023-01-11T08:18:29.330Z,14.97
2023-01-11T08:20:56.718Z,15.93
2023-01-11T08:23:26.164Z,15.43
2023-01-11T08:25:57.571Z,15.77
2023-01-11T08:28:24.989Z,15.17
2023-01-11T08:30:52.490Z,15.73
2023-01-11T08:33:19.623Z,15.57
2023-01-11T08:35:46.974Z,16.10
2023-01-11T08:38:14.352Z,15.47
2023-01-11T08:40:41.814Z,14.47
2023-01-11T08:43:09.965Z,15.93
2023-01-11T08:45:38.603Z,14.93
2023-01-11T08:48:06.230Z,16.10
2023-01-11T08:50:33.545Z,15.57
2023-01-11T08:53:00.877Z,16.67
2023-01-11T08:55:30.994Z,15.57
2023-01-11T08:57:58.343Z,15.07
2023-01-11T09:00:25.736Z,15.27
2023-01-11T09:02:53.127Z,14.93
2023-01-11T09:05:21.011Z,15.47
2023-01-11T09:07:48.395Z,14.23
2023-01-11T09:10:18.947Z,14.90
2023-01-11T09:12:46.290Z,14.47
2023-01-11T09:15:14.041Z,13.50
2023-01-11T09:17:41.704Z,13.97
2023-01-11T09:20:13.196Z,14.70
2023-01-11T09:22:40.831Z,13.97
2023-01-11T09:25:08.652Z,14.53
2023-01-11T09:27:38.369Z,15.57
2023-01-11T09:30:06.031Z,13.90
2023-01-11T09:32:34.345Z,15.47
2023-01-11T09:35:05.293Z,15.47
2023-01-11T09:37:33.182Z,15.53
2023-01-11T09:40:01.615Z,15.20
2023-01-11T09:42:36.666Z,15.70
2023-01-11T09:45:05.421Z,14.90
2023-01-11T09:47:44.537Z,16.17
2023-01-11T09:50:21.871Z,16.27
2023-01-11T09:52:54.535Z,16.03
2023-01-11T09:55:28.129Z,17.27
2023-01-11T09:57:56.135Z,16.00
2023-01-11T10:00:28.641Z,15.33
2023-01-11T10:03:34.684Z,16.50
2023-01-11T10:06:06.818Z,16.37
2023-01-11T10:18:26.164Z,16.40
2023-01-11T10:18:28.494Z,16.37
2023-01-11T10:20:37.951Z,16.63
2023-01-11T10:23:09.742Z,16.97
2023-01-11T10:25:47.985Z,17.00
2023-01-11T10:28:23.141Z,18.13
2023-01-11T10:31:00.655Z,18.20
2023-01-11T10:33:50.875Z,17.47
2023-01-11T10:36:32.339Z,18.00
2023-01-11T10:39:56.240Z,16.70
2023-01-11T10:42:25.370Z,19.60
2023-01-11T10:45:03.166Z,17.47
2023-01-11T10:47:34.479Z,17.43
2023-01-11T10:50:06.499Z,18.00
2023-01-11T10:52:44.448Z,17.80
2023-01-11T10:55:14.091Z,17.30
2023-01-11T10:57:59.470Z,17.70
2023-01-11T11:00:36.327Z,18.37
2023-01-11T11:03:06.690Z,18.77
2023-01-11T11:05:41.270Z,17.83
2023-01-11T11:08:10.257Z,17.97
2023-01-11T11:10:46.454Z,18.20
2023-01-11T11:13:15.929Z,19.00
2023-01-11T11:15:53.866Z,19.03
2023-01-11T11:18:21.961Z,18.00
2023-01-11T11:20:49.580Z,17.67
2023-01-11T11:23:19.213Z,18.13
2023-01-11T11:25:55.089Z,18.07
2023-01-11T11:28:27.365Z,16.80
2023-01-11T11:30:56.335Z,18.70
2023-01-11T11:33:37.907Z,20.05
2023-01-11T11:36:08.963Z,18.30
2023-01-11T11:38:37.421Z,18.60
2023-01-11T11:41:09.004Z,17.77
2023-01-11T11:43:40.624Z,17.57
2023-01-11T11:46:20.500Z,19.97
2023-01-11T11:49:08.443Z,17.47
2023-01-11T11:51:36.093Z,18.37
2023-01-11T11:54:06.630Z,18.97
2023-01-11T11:56:35.254Z,20.03
2023-01-11T11:59:10.031Z,18.87
2023-01-11T12:01:39.970Z,19.40
2023-01-11T12:04:36.169Z,18.83
2023-01-11T12:07:06.561Z,18.13
2023-01-11T12:09:38.934Z,18.87
2023-01-11T12:12:10.699Z,18.60
2023-01-11T12:14:40.505Z,18.93
2023-01-11T12:17:26.178Z,18.27
2023-01-11T12:19:56.222Z,18.90
2023-01-11T12:22:25.386Z,18.20
2023-01-11T12:25:15.531Z,17.27
2023-01-11T12:27:50.969Z,18.17
2023-01-11T12:30:25.517Z,18.03
2023-01-11T12:33:11.374Z,15.03
2023-01-11T12:35:39.046Z,14.87
2023-01-11T12:38:29.211Z,15.57
2023-01-11T12:41:10.184Z,14.57
2023-01-11T12:43:38.762Z,15.67
2023-01-11T12:46:19.693Z,16.53
2023-01-11T12:48:54.090Z,16.13
2023-01-11T12:51:36.792Z,16.30
2023-01-11T12:54:19.417Z,17.00
2023-01-11T12:57:04.067Z,16.77
2023-01-11T12:59:44.189Z,16.00
2023-01-11T13:02:33.352Z,15.87
2023-01-11T13:05:13.858Z,15.77
2023-01-11T13:07:52.917Z,15.63
2023-01-11T13:10:41.732Z,15.40
2023-01-11T13:13:27.469Z,15.53
2023-01-11T13:16:24.052Z,14.70
2023-01-11T13:19:13.763Z,16.03
2023-01-11T13:21:53.256Z,17.30
2023-01-11T13:24:26.592Z,16.53
2023-01-11T13:27:00.652Z,16.40
2023-01-11T13:29:32.730Z,16.53
2023-01-11T13:32:04.193Z,16.47
2023-01-11T13:34:40.581Z,16.40
2023-01-11T13:37:13.968Z,16.13
2023-01-11T13:40:02.229Z,16.53
2023-01-11T13:42:39.919Z,16.60
2023-01-11T13:45:25.688Z,16.73
2023-01-11T13:47:58.791Z,17.13
2023-01-11T13:50:36.308Z,16.87
2023-01-11T13:53:06.261Z,17.30
2023-01-11T13:55:46.238Z,17.20
2023-01-11T13:58:29.087Z,17.77
2023-01-11T14:01:13.259Z,17.97
2023-01-11T14:03:49.081Z,18.80
2023-01-11T14:06:22.537Z,17.50
2023-01-11T14:09:11.017Z,16.63
2023-01-11T14:11:54.119Z,17.87
2023-01-11T14:14:40.093Z,17.73
2023-01-11T14:17:40.176Z,16.30
2023-01-11T14:20:17.225Z,16.83
2023-01-11T14:23:04.422Z,16.97
2023-01-11T14:25:33.774Z,17.30
2023-01-11T14:28:13.223Z,17.27
2023-01-11T14:30:59.283Z,17.23
2023-01-11T14:33:45.137Z,17.87
2023-01-11T14:36:31.130Z,17.47
2023-01-11T14:39:07.313Z,18.30
2023-01-11T14:41:34.748Z,17.80
2023-01-11T14:44:25.612Z,17.70
2023-01-11T14:47:08.787Z,17.40
2023-01-11T14:49:42.878Z,18.23
2023-01-11T14:52:17.536Z,19.07
2023-01-11T14:54:47.662Z,17.83
2023-01-11T14:57:50.600Z,18.47
2023-01-11T15:00:20.914Z,18.23
2023-01-11T15:02:52.133Z,19.10
2023-01-11T15:05:28.570Z,19.20
2023-01-11T15:08:25.449Z,18.53
2023-01-11T15:10:59.723Z,19.73
2023-01-11T15:13:45.178Z,19.00
2023-01-11T15:16:44.967Z,19.30
2023-01-11T15:19:26.991Z,19.43
2023-01-11T15:22:08.043Z,19.73
2023-01-11T15:24:46.860Z,18.07
2023-01-11T15:27:25.448Z,18.77
2023-01-11T15:29:56.907Z,19.87
2023-01-11T15:32:29.737Z,19.33
2023-01-11T15:35:17.286Z,18.83
2023-01-11T15:37:47.421Z,19.13
2023-01-11T15:40:19.546Z,20.17
2023-01-11T15:42:49.855Z,20.17
2023-01-11T15:45:24.778Z,19.03
2023-01-11T15:48:22.195Z,19.70
2023-01-11T15:51:11.002Z,18.80
2023-01-11T15:53:38.414Z,18.87
2023-01-11T15:56:12.155Z,19.13
2023-01-11T15:58:42.523Z,19.00
2023-01-11T16:01:34.141Z,18.53
2023-01-11T16:04:17.069Z,18.63
2023-01-11T16:06:48.213Z,18.90
2023-01-11T16:09:37.160Z,19.37
2023-01-11T16:12:20.064Z,17.57
2023-01-11T16:15:05.902Z,17.47
2023-01-11T16:17:34.653Z,17.70
2023-01-11T16:20:13.945Z,17.87
2023-01-11T16:22:44.921Z,18.00
2023-01-11T16:25:15.045Z,18.30
2023-01-11T16:27:44.501Z,18.40
2023-01-11T16:30:18.396Z,18.97
2023-01-11T16:32:45.794Z,18.17
2023-01-11T16:35:17.868Z,17.73
2023-01-11T16:37:46.628Z,19.20
2023-01-11T16:40:18.057Z,19.57
2023-01-11T16:42:57.141Z,19.50
2023-01-11T16:45:25.762Z,20.53
2023-01-11T16:48:06.868Z,19.37
2023-01-11T16:50:35.272Z,19.33
2023-01-11T16:53:06.851Z,20.30
2023-01-11T16:55:40.885Z,20.20
2023-01-11T16:58:21.741Z,21.47
2023-01-11T17:01:02.572Z,21.77
2023-01-11T17:03:31.242Z,20.93
2023-01-11T17:05:58.809Z,20.00
2023-01-11T17:08:29.384Z,20.37
2023-01-11T17:10:58.991Z,17.60
2023-01-11T17:13:54.820Z,19.53
2023-01-11T17:16:25.999Z,19.37
2023-01-11T17:18:54.639Z,17.77
2023-01-11T17:21:24.182Z,19.43
2023-01-11T17:23:53.662Z,18.57
2023-01-11T17:26:25.825Z,19.23
2023-01-11T17:28:57.806Z,18.93
2023-01-11T17:31:27.126Z,19.67
2023-01-11T17:34:13.373Z,19.40
2023-01-11T17:36:41.707Z,18.70
2023-01-11T17:39:12.680Z,18.37
2023-01-11T17:42:00.154Z,18.63
2023-01-11T17:44:46.133Z,18.90
2023-01-11T17:47:14.625Z,19.00
2023-01-11T17:49:43.313Z,17.90
2023-01-11T17:52:18.384Z,20.17
2023-01-11T17:54:45.891Z,19.23
2023-01-11T17:57:14.473Z,19.33
2023-01-11T17:59:44.548Z,20.20
2023-01-11T18:02:15.152Z,19.23
2023-01-11T18:04:44.242Z,18.27
2023-01-11T18:07:20.899Z,19.77
2023-01-11T18:09:50.545Z,19.53
2023-01-11T18:12:23.299Z,18.93
2023-01-11T18:14:50.700Z,20.27
2023-01-11T18:17:37.573Z,19.53
2023-01-11T18:20:25.364Z,19.00
2023-01-11T18:23:03.149Z,18.67
2023-01-11T18:25:34.664Z,18.73
2023-01-11T18:28:21.316Z,17.63
2023-01-11T18:30:54.908Z,18.47
2023-01-11T18:33:23.843Z,18.30
2023-01-11T18:35:54.930Z,18.87
2023-01-11T18:38:24.797Z,19.30
2023-01-11T18:40:54.713Z,18.80
2023-01-11T18:43:25.548Z,18.87
2023-01-11T18:45:54.044Z,18.63
2023-01-11T18:48:21.993Z,19.93
2023-01-11T18:50:52.184Z,19.10
2023-01-11T18:53:19.906Z,19.50
2023-01-11T18:55:47.587Z,18.63
2023-01-11T18:58:15.453Z,20.47
2023-01-11T19:00:43.297Z,20.23
2023-01-11T19:03:12.675Z,20.47
2023-01-11T19:05:41.825Z,19.63
2023-01-11T19:08:09.668Z,20.93
2023-01-11T19:10:43.553Z,19.93
2023-01-11T19:13:11.620Z,20.00
2023-01-11T19:15:41.853Z,20.67
2023-01-11T19:18:12.312Z,19.77
2023-01-11T19:20:41.101Z,17.80
2023-01-11T19:23:08.769Z,18.63
2023-01-11T19:25:36.574Z,17.33
2023-01-11T19:28:04.788Z,17.57
2023-01-11T19:30:32.237Z,18.13
2023-01-11T19:32:59.557Z,17.73
2023-01-11T19:35:26.900Z,16.50
2023-01-11T19:37:54.252Z,16.53
2023-01-11T19:40:21.635Z,17.10
2023-01-11T19:42:52.283Z,16.17
2023-01-11T19:45:19.614Z,17.50
2023-01-11T19:47:47.414Z,17.20
2023-01-11T19:50:16.958Z,17.60
2023-01-11T19:52:46.116Z,16.83
2023-01-11T19:55:13.457Z,17.50
2023-01-11T19:57:41.149Z,17.30
2023-01-11T20:00:09.109Z,17.77
2023-01-11T20:02:42.596Z,18.10
2023-01-11T20:05:10.273Z,17.20
2023-01-11T20:07:37.613Z,17.87
2023-01-11T20:10:05.140Z,18.17
2023-01-11T20:12:32.554Z,18.73
2023-01-11T20:15:01.336Z,19.47
2023-01-11T20:17:29.448Z,18.97
2023-01-11T20:19:56.787Z,19.10
2023-01-11T20:22:24.763Z,19.30
2023-01-11T20:24:52.965Z,19.23
2023-01-11T20:27:21.631Z,19.43
2023-01-11T20:29:49.218Z,19.87
2023-01-11T20:32:39.153Z,20.87
2023-01-11T20:35:11.562Z,20.93
2023-01-11T20:37:59.782Z,21.50
2023-01-11T20:40:27.220Z,22.20
2023-01-11T20:42:54.599Z,21.53
2023-01-11T20:45:21.965Z,21.93
2023-01-11T20:47:49.262Z,22.43
2023-01-11T20:50:16.695Z,23.63
2023-01-11T20:52:45.430Z,23.37
2023-01-11T20:55:13.320Z,22.17
2023-01-11T20:57:42.395Z,23.57
2023-01-11T21:00:12.928Z,23.00
2023-01-11T21:02:40.440Z,22.67
2023-01-11T21:05:09.418Z,23.50
2023-01-11T21:07:37.336Z,23.17
2023-01-11T21:10:06.822Z,23.80
2023-01-11T21:12:34.231Z,24.30
2023-01-11T21:15:01.815Z,23.63
2023-01-11T21:17:30.941Z,23.63
2023-01-11T21:19:58.238Z,25.67
2023-01-11T21:22:25.656Z,23.87
2023-01-11T21:24:53.088Z,28.10
2023-01-11T21:27:23.476Z,24.73
2023-01-11T21:29:51.783Z,26.73
2023-01-11T21:32:20.185Z,24.83
2023-01-11T21:34:47.677Z,25.73
2023-01-11T21:37:16.206Z,25.50
2023-01-11T21:39:44.536Z,24.70
2023-01-11T21:42:12.354Z,25.37
2023-01-11T21:44:44.972Z,25.47
2023-01-11T21:47:17.143Z,24.40
2023-01-11T21:49:45.028Z,24.53
2023-01-11T21:52:14.439Z,24.50
2023-01-11T21:54:42.159Z,25.20
2023-01-11T21:57:09.556Z,24.03
2023-01-11T21:59:37.008Z,24.30
2023-01-11T22:02:04.428Z,24.33
2023-01-11T22:04:32.346Z,25.03
2023-01-11T22:07:00.475Z,24.93
2023-01-11T22:09:37.962Z,25.27
2023-01-11T22:12:05.603Z,25.67
2023-01-11T22:14:33.309Z,24.23
2023-01-11T22:17:02.542Z,24.43
2023-01-11T22:19:31.988Z,24.10
2023-01-11T22:21:59.423Z,24.50
2023-01-11T22:24:27.556Z,25.50
2023-01-11T22:26:55.139Z,24.70
2023-01-11T22:29:23.491Z,24.30
2023-01-11T22:31:56.104Z,23.80
2023-01-11T22:34:24.459Z,24.67
2023-01-11T22:36:53.360Z,24.80
2023-01-11T22:39:24.348Z,25.40
2023-01-11T22:41:51.956Z,24.47
2023-01-11T22:44:19.920Z,24.27
2023-01-11T22:46:47.620Z,24.53
2023-01-11T22:49:15.391Z,24.33
2023-01-11T22:51:47.271Z,23.60
2023-01-11T22:54:16.748Z,24.17
2023-01-11T22:56:44.289Z,25.13
2023-01-11T22:59:11.883Z,24.20
2023-01-11T23:01:41.560Z,23.37
2023-01-11T23:04:11.643Z,24.60
2023-01-11T23:06:40.058Z,24.10
2023-01-11T23:09:09.381Z,24.30
2023-01-11T23:11:56.182Z,23.90
2023-01-11T23:14:29.083Z,23.27
2023-01-11T23:16:57.889Z,23.77
